createdAt,value
2018-07-13T00:00:06.200Z,17.95
2018-07-13T00:01:07.596Z,17.94
2018-07-13T00:02:08.987Z,17.87
2018-07-13T00:03:10.372Z,17.94
2018-07-13T00:04:11.755Z,17.86
2018-07-13T00:05:13.147Z,17.89
2018-07-13T00:06:14.528Z,17.89
2018-07-13T00:07:15.907Z,17.91
2018-07-13T00:08:17.292Z,17.95
2018-07-13T00:09:18.678Z,17.89
2018-07-13T00:10:20.070Z,17.89
2018-07-13T00:11:21.450Z,17.92
2018-07-13T00:12:22.829Z,17.81
2018-07-13T00:13:24.216Z,17.87
2018-07-13T00:14:25.618Z,17.86
2018-07-13T00:15:26.983Z,17.86
2018-07-13T00:16:28.377Z,17.87
2018-07-13T00:17:29.758Z,17.87
2018-07-13T00:18:31.140Z,17.87
2018-07-13T00:19:32.528Z,17.77
2018-07-13T00:20:33.920Z,17.74
2018-07-13T00:21:35.309Z,17.73
2018-07-13T00:22:36.696Z,17.71
2018-07-13T00:23:38.100Z,17.76
2018-07-13T00:24:39.465Z,17.66
2018-07-13T00:25:40.848Z,17.66
2018-07-13T00:26:42.236Z,17.65
2018-07-13T00:27:43.623Z,17.68
2018-07-13T00:28:45.011Z,17.65
2018-07-13T00:29:46.406Z,17.54
2018-07-13T00:30:47.787Z,17.66
2018-07-13T00:31:49.182Z,17.68
2018-07-13T00:32:50.562Z,17.53
2018-07-13T00:33:51.960Z,17.49
2018-07-13T00:34:53.335Z,17.55
2018-07-13T00:35:54.728Z,17.51
2018-07-13T00:36:56.106Z,17.58
2018-07-13T00:37:57.503Z,17.53
2018-07-13T00:38:58.880Z,17.53
2018-07-13T00:40:00.265Z,17.51
2018-07-13T00:41:01.652Z,17.46
2018-07-13T00:42:03.031Z,17.43
2018-07-13T00:43:05.261Z,17.40
2018-07-13T00:44:06.645Z,17.43
2018-07-13T00:45:08.039Z,17.47
2018-07-13T00:46:09.424Z,17.45
2018-07-13T00:47:10.821Z,17.42
2018-07-13T00:48:13.065Z,17.38
2018-07-13T00:49:14.447Z,17.40
2018-07-13T00:50:16.708Z,17.38
2018-07-13T00:51:18.101Z,17.33
2018-07-13T00:52:19.491Z,17.36
2018-07-13T00:53:20.880Z,17.35
2018-07-13T00:54:22.262Z,17.36
2018-07-13T00:55:23.650Z,17.40
2018-07-13T00:56:25.034Z,17.42
2018-07-13T00:57:26.420Z,17.42
2018-07-13T00:58:27.824Z,17.35
2018-07-13T00:59:29.200Z,17.30
2018-07-13T01:00:30.587Z,17.35
2018-07-13T01:01:31.974Z,17.25
2018-07-13T01:02:33.366Z,17.28
2018-07-13T01:03:34.753Z,17.25
2018-07-13T01:04:36.140Z,17.30
2018-07-13T01:05:37.521Z,17.28
2018-07-13T01:06:38.906Z,17.24
2018-07-13T01:07:40.289Z,17.25
2018-07-13T01:08:41.689Z,17.27
2018-07-13T01:09:43.557Z,17.18
2018-07-13T01:10:44.936Z,17.20
2018-07-13T01:11:46.322Z,17.18
2018-07-13T01:12:47.701Z,17.15
2018-07-13T01:13:49.085Z,17.21
2018-07-13T01:14:50.466Z,17.24
2018-07-13T01:15:51.863Z,17.14
2018-07-13T01:16:53.240Z,17.09
2018-07-13T01:17:54.625Z,17.09
2018-07-13T01:18:56.014Z,17.15
2018-07-13T01:19:58.336Z,17.18
2018-07-13T01:20:59.722Z,17.17
2018-07-13T01:22:01.111Z,17.15
2018-07-13T01:23:02.489Z,17.07
2018-07-13T01:24:03.881Z,17.05
2018-07-13T01:25:05.274Z,17.00
2018-07-13T01:26:06.647Z,17.05
2018-07-13T01:27:08.035Z,17.06
2018-07-13T01:28:09.414Z,17.02
2018-07-13T01:29:10.795Z,17.06
2018-07-13T01:30:12.182Z,17.06
2018-07-13T01:31:13.574Z,17.10
2018-07-13T01:32:14.957Z,17.14
2018-07-13T01:33:16.351Z,17.06
2018-07-13T01:34:17.739Z,17.03
2018-07-13T01:35:19.123Z,17.07
2018-07-13T01:36:20.515Z,17.03
2018-07-13T01:37:21.895Z,17.09
2018-07-13T01:38:23.287Z,17.07
2018-07-13T01:39:24.671Z,17.15
2018-07-13T01:40:26.063Z,16.99
2018-07-13T01:41:27.453Z,16.99
2018-07-13T01:42:28.839Z,16.96
2018-07-13T01:43:30.217Z,17.02
2018-07-13T01:44:32.570Z,16.96
2018-07-13T01:45:33.963Z,17.00
2018-07-13T01:46:35.352Z,16.99
2018-07-13T01:47:36.737Z,16.99
2018-07-13T01:48:38.109Z,17.02
2018-07-13T01:49:39.497Z,16.99
2018-07-13T01:50:40.890Z,17.06
2018-07-13T01:51:42.268Z,16.95
2018-07-13T01:52:43.650Z,16.98
2018-07-13T01:53:45.035Z,16.98
2018-07-13T01:54:46.434Z,17.00
2018-07-13T01:55:47.811Z,16.91
2018-07-13T01:56:49.206Z,16.96
2018-07-13T01:57:50.600Z,16.99
2018-07-13T01:58:51.984Z,16.92
2018-07-13T01:59:53.373Z,16.91
2018-07-13T02:00:54.748Z,17.00
2018-07-13T02:01:56.138Z,16.90
2018-07-13T02:02:57.521Z,16.95
2018-07-13T02:03:58.910Z,17.00
2018-07-13T02:05:00.296Z,16.96
2018-07-13T02:06:01.679Z,16.84
2018-07-13T02:07:03.060Z,16.87
2018-07-13T02:08:04.455Z,16.84
2018-07-13T02:09:05.841Z,16.88
2018-07-13T02:10:07.231Z,16.88
2018-07-13T02:11:08.613Z,16.82
2018-07-13T02:12:10.006Z,16.87
2018-07-13T02:13:11.392Z,16.80
2018-07-13T02:14:12.775Z,16.82
2018-07-13T02:15:14.163Z,16.80
2018-07-13T02:16:15.547Z,16.78
2018-07-13T02:17:16.943Z,16.75
2018-07-13T02:18:18.327Z,16.87
2018-07-13T02:19:19.709Z,16.78
2018-07-13T02:20:21.091Z,16.84
2018-07-13T02:21:22.489Z,16.77
2018-07-13T02:22:23.869Z,16.75
2018-07-13T02:23:25.260Z,16.75
2018-07-13T02:24:26.647Z,16.69
2018-07-13T02:25:28.027Z,16.72
2018-07-13T02:26:29.429Z,16.75
2018-07-13T02:27:30.814Z,16.67
2018-07-13T02:28:32.195Z,16.67
2018-07-13T02:29:33.582Z,16.72
2018-07-13T02:30:34.959Z,16.66
2018-07-13T02:31:36.339Z,16.57
2018-07-13T02:32:37.731Z,16.60
2018-07-13T02:33:39.109Z,16.59
2018-07-13T02:34:40.497Z,16.62
2018-07-13T02:35:41.879Z,16.57
2018-07-13T02:36:43.276Z,16.57
2018-07-13T02:37:44.660Z,16.63
2018-07-13T02:38:46.070Z,16.51
2018-07-13T02:39:47.442Z,16.57
2018-07-13T02:40:48.835Z,16.51
2018-07-13T02:41:50.226Z,16.55
2018-07-13T02:42:51.614Z,16.50
2018-07-13T02:43:52.994Z,16.57
2018-07-13T02:44:54.382Z,16.45
2018-07-13T02:45:55.766Z,16.55
2018-07-13T02:46:57.152Z,16.59
2018-07-13T02:47:58.542Z,16.50
2018-07-13T02:48:59.937Z,16.59
2018-07-13T02:50:01.322Z,16.59
2018-07-13T02:51:02.717Z,16.54
2018-07-13T02:52:04.095Z,16.55
2018-07-13T02:53:05.493Z,16.51
2018-07-13T02:54:06.875Z,16.55
2018-07-13T02:55:08.291Z,16.48
2018-07-13T02:56:09.655Z,16.50
2018-07-13T02:57:11.045Z,16.48
2018-07-13T02:58:12.433Z,16.51
2018-07-13T02:59:13.827Z,16.45
2018-07-13T03:00:15.211Z,16.50
2018-07-13T03:01:16.593Z,16.54
2018-07-13T03:02:17.968Z,16.51
2018-07-13T03:03:19.369Z,16.55
2018-07-13T03:04:20.750Z,16.52
2018-07-13T03:05:22.137Z,16.51
2018-07-13T03:06:23.533Z,16.55
2018-07-13T03:07:24.923Z,16.55
2018-07-13T03:08:26.299Z,16.55
2018-07-13T03:09:27.691Z,16.59
2018-07-13T03:10:29.084Z,16.55
2018-07-13T03:11:30.471Z,16.57
2018-07-13T03:12:31.852Z,16.54
2018-07-13T03:13:33.240Z,16.57
2018-07-13T03:14:34.630Z,16.57
2018-07-13T03:15:36.014Z,16.59
2018-07-13T03:16:37.409Z,16.51
2018-07-13T03:17:38.792Z,16.50
2018-07-13T03:18:40.180Z,16.54
2018-07-13T03:19:41.568Z,16.63
2018-07-13T03:20:43.919Z,16.54
2018-07-13T03:21:45.313Z,16.63
2018-07-13T03:22:46.703Z,16.54
2018-07-13T03:23:48.097Z,16.62
2018-07-13T03:24:49.477Z,16.59
2018-07-13T03:25:50.875Z,16.57
2018-07-13T03:26:52.280Z,16.62
2018-07-13T03:27:53.663Z,16.57
2018-07-13T03:28:55.044Z,16.59
2018-07-13T03:29:56.429Z,16.72
2018-07-13T03:30:57.827Z,16.66
2018-07-13T03:31:59.218Z,16.66
2018-07-13T03:33:00.613Z,16.69
2018-07-13T03:34:03.173Z,16.75
2018-07-13T03:35:03.882Z,16.72
2018-07-13T03:36:05.285Z,16.75
2018-07-13T03:37:06.676Z,16.72
2018-07-13T03:38:08.065Z,16.70
2018-07-13T03:39:09.456Z,16.70
2018-07-13T03:40:10.841Z,16.70
2018-07-13T03:41:12.237Z,16.72
2018-07-13T03:42:13.628Z,16.72
2018-07-13T03:43:15.013Z,16.80
2018-07-13T03:44:16.396Z,16.80
2018-07-13T03:45:17.785Z,16.81
2018-07-13T03:46:19.188Z,16.82
2018-07-13T03:47:20.567Z,16.88
2018-07-13T03:48:21.981Z,16.91
2018-07-13T03:49:23.338Z,16.95
2018-07-13T03:50:24.733Z,16.85
2018-07-13T03:51:26.113Z,16.95
2018-07-13T03:52:27.505Z,16.91
2018-07-13T03:53:28.903Z,16.84
2018-07-13T03:54:30.291Z,16.92
2018-07-13T03:55:31.680Z,16.96
2018-07-13T03:56:33.077Z,16.92
2018-07-13T03:57:34.469Z,17.00
2018-07-13T03:58:35.854Z,16.99
2018-07-13T03:59:37.241Z,16.91
2018-07-13T04:00:38.646Z,16.98
2018-07-13T04:01:40.024Z,16.95
2018-07-13T04:02:41.408Z,16.91
2018-07-13T04:03:42.792Z,16.88
2018-07-13T04:04:44.181Z,16.99
2018-07-13T04:05:45.573Z,16.96
2018-07-13T04:06:46.959Z,16.96
2018-07-13T04:07:48.355Z,16.90
2018-07-13T04:08:49.742Z,16.90
2018-07-13T04:09:51.132Z,16.95
2018-07-13T04:10:52.522Z,16.95
2018-07-13T04:11:53.915Z,16.92
2018-07-13T04:12:55.298Z,16.95
2018-07-13T04:13:56.693Z,16.91
2018-07-13T04:14:58.083Z,16.96
2018-07-13T04:15:59.464Z,16.95
2018-07-13T04:17:00.862Z,16.95
2018-07-13T04:18:02.253Z,16.98
2018-07-13T04:19:03.640Z,16.92
2018-07-13T04:20:05.028Z,16.96
2018-07-13T04:21:06.421Z,16.95
2018-07-13T04:22:07.807Z,16.90
2018-07-13T04:23:09.202Z,16.95
2018-07-13T04:24:10.587Z,16.95
2018-07-13T04:25:11.974Z,16.88
2018-07-13T04:26:13.367Z,16.95
2018-07-13T04:27:14.738Z,16.98
2018-07-13T04:28:16.125Z,16.96
2018-07-13T04:29:17.524Z,16.91
2018-07-13T04:30:18.907Z,16.99
2018-07-13T04:31:20.298Z,16.96
2018-07-13T04:32:21.695Z,16.99
2018-07-13T04:33:23.082Z,17.06
2018-07-13T04:34:24.463Z,17.05
2018-07-13T04:35:25.853Z,17.05
2018-07-13T04:36:27.242Z,17.07
2018-07-13T04:37:28.641Z,17.12
2018-07-13T04:38:30.030Z,17.07
2018-07-13T04:39:31.421Z,17.21
2018-07-13T04:40:32.812Z,17.20
2018-07-13T04:41:34.199Z,17.18
2018-07-13T04:42:35.590Z,17.22
2018-07-13T04:43:37.443Z,17.27
2018-07-13T04:44:38.832Z,17.40
2018-07-13T04:45:40.220Z,17.35
2018-07-13T04:46:41.606Z,17.39
2018-07-13T04:47:42.998Z,17.40
2018-07-13T04:48:44.387Z,17.46
2018-07-13T04:49:45.779Z,17.54
2018-07-13T04:50:47.159Z,17.57
2018-07-13T04:51:48.551Z,17.63
2018-07-13T04:52:49.934Z,17.80
2018-07-13T04:53:51.335Z,17.81
2018-07-13T04:54:52.713Z,17.94
2018-07-13T04:55:54.112Z,18.02
2018-07-13T04:56:55.499Z,18.10
2018-07-13T04:57:56.882Z,18.16
2018-07-13T04:58:58.278Z,18.17
2018-07-13T04:59:59.664Z,18.41
2018-07-13T05:01:01.060Z,18.39
2018-07-13T05:02:02.464Z,18.46
2018-07-13T05:03:03.852Z,18.51
2018-07-13T05:04:05.250Z,18.68
2018-07-13T05:05:06.650Z,18.71
2018-07-13T05:06:08.068Z,18.86
2018-07-13T05:07:09.434Z,18.86
2018-07-13T05:08:10.819Z,19.05
2018-07-13T05:09:12.217Z,19.10
2018-07-13T05:10:13.620Z,19.13
2018-07-13T05:11:15.014Z,19.31
2018-07-13T05:12:16.408Z,19.28
2018-07-13T05:13:17.791Z,19.39
2018-07-13T05:14:19.189Z,19.50
2018-07-13T05:15:20.579Z,19.50
2018-07-13T05:16:21.981Z,19.60
2018-07-13T05:17:23.368Z,19.60
2018-07-13T05:18:24.759Z,19.65
2018-07-13T05:19:26.146Z,19.57
2018-07-13T05:20:27.544Z,19.67
2018-07-13T05:21:28.945Z,19.55
2018-07-13T05:22:30.341Z,19.67
2018-07-13T05:23:31.749Z,19.53
2018-07-13T05:24:33.131Z,19.61
2018-07-13T05:25:34.530Z,19.67
2018-07-13T05:26:35.920Z,19.67
2018-07-13T05:27:37.310Z,19.71
2018-07-13T05:28:38.707Z,19.67
2018-07-13T05:29:40.104Z,19.72
2018-07-13T05:30:41.559Z,19.89
2018-07-13T05:31:42.905Z,19.92
2018-07-13T05:32:44.298Z,20.02
2018-07-13T05:33:45.694Z,20.01
2018-07-13T05:34:47.087Z,19.92
2018-07-13T05:35:48.484Z,20.00
2018-07-13T05:36:49.877Z,20.01
2018-07-13T05:37:51.272Z,20.12
2018-07-13T05:38:52.668Z,20.16
2018-07-13T05:39:54.061Z,20.30
2018-07-13T05:40:55.453Z,20.33
2018-07-13T05:41:56.852Z,20.41
2018-07-13T05:42:58.253Z,20.60
2018-07-13T05:43:59.651Z,20.50
2018-07-13T05:45:01.052Z,20.51
2018-07-13T05:46:02.441Z,20.50
2018-07-13T05:47:03.834Z,20.40
2018-07-13T05:48:05.225Z,20.35
2018-07-13T05:49:06.611Z,20.22
2018-07-13T05:50:08.012Z,20.01
2018-07-13T05:51:09.405Z,20.05
2018-07-13T13:40:00.085Z,28.28
2018-07-13T13:41:01.498Z,28.33
2018-07-13T13:42:02.945Z,28.39
2018-07-13T13:43:04.279Z,28.27
2018-07-13T13:44:05.679Z,28.21
2018-07-13T13:45:07.091Z,28.35
2018-07-13T13:46:08.491Z,28.33
2018-07-13T13:47:09.895Z,28.30
2018-07-13T13:48:11.288Z,28.32
2018-07-13T13:49:12.682Z,28.27
2018-07-13T13:50:14.082Z,28.20
2018-07-13T13:51:15.469Z,28.25
2018-07-13T13:52:16.869Z,28.28
2018-07-13T13:53:18.261Z,28.28
2018-07-13T13:54:19.658Z,28.23
2018-07-13T13:55:21.045Z,28.17
2018-07-13T13:56:22.440Z,28.15
2018-07-13T13:57:23.855Z,28.20
2018-07-13T13:58:25.251Z,28.13
2018-07-13T13:59:26.639Z,28.20
2018-07-13T14:00:28.036Z,28.06
2018-07-13T14:01:29.433Z,28.06
2018-07-13T14:02:30.862Z,28.17
2018-07-13T14:03:32.266Z,28.11
2018-07-13T14:04:33.674Z,28.05
2018-07-13T14:05:35.128Z,28.06
2018-07-13T14:06:36.475Z,28.09
2018-07-13T14:07:37.885Z,28.20
2018-07-13T14:08:39.285Z,28.15
2018-07-13T14:09:40.690Z,28.14
2018-07-13T14:10:42.102Z,28.14
2018-07-13T14:11:43.510Z,28.17
2018-07-13T14:12:44.898Z,28.18
2018-07-13T14:13:46.287Z,28.17
2018-07-13T14:14:47.708Z,28.20
2018-07-13T14:15:49.087Z,28.13
2018-07-13T14:16:50.484Z,28.11
2018-07-13T14:17:51.889Z,28.15
2018-07-13T14:18:53.291Z,28.08
2018-07-13T14:19:54.692Z,28.02
2018-07-13T14:20:56.107Z,28.11
2018-07-13T14:21:57.507Z,28.06
2018-07-13T14:22:58.905Z,28.06
2018-07-13T14:24:00.307Z,28.13
2018-07-13T14:25:01.709Z,28.15
2018-07-13T14:26:03.100Z,28.13
2018-07-13T14:27:04.502Z,28.11
2018-07-13T14:28:05.896Z,28.14
2018-07-13T14:29:07.297Z,28.15
2018-07-13T14:30:08.694Z,28.14
2018-07-13T14:31:10.101Z,28.13
2018-07-13T14:32:11.496Z,28.14
2018-07-13T14:33:12.913Z,28.09
2018-07-13T14:34:14.630Z,28.11
2018-07-13T14:35:16.090Z,28.01
2018-07-13T14:36:17.494Z,27.98
2018-07-13T14:37:18.887Z,27.96
2018-07-13T14:38:20.283Z,28.01
2018-07-13T14:39:21.677Z,27.93
2018-07-13T14:40:23.141Z,27.78
2018-07-13T14:41:25.292Z,27.71
2018-07-13T14:42:26.672Z,27.65
2018-07-13T14:43:28.079Z,27.69
2018-07-13T14:44:29.487Z,27.61
2018-07-13T14:45:30.881Z,27.58
2018-07-13T14:46:32.273Z,27.61
2018-07-13T14:47:33.668Z,27.59
2018-07-13T14:48:35.073Z,27.58
2018-07-13T14:49:36.496Z,27.42
2018-07-13T14:50:37.883Z,27.43
2018-07-13T14:51:39.729Z,27.43
2018-07-13T14:52:42.561Z,27.43
2018-07-13T14:53:43.958Z,27.39
2018-07-13T14:54:45.353Z,27.35
2018-07-13T14:55:48.151Z,27.34
2018-07-13T14:56:49.974Z,27.38
2018-07-13T14:57:52.318Z,27.25
2018-07-13T14:58:53.708Z,27.38
2018-07-13T14:59:55.109Z,27.24
2018-07-13T15:00:56.440Z,27.27
2018-07-13T15:01:57.919Z,27.23
2018-07-13T15:02:59.314Z,27.12
2018-07-13T15:04:01.678Z,27.12
2018-07-13T15:05:03.324Z,27.03
2018-07-13T15:06:05.321Z,27.09
2018-07-13T15:07:06.491Z,27.03
2018-07-13T15:08:07.892Z,27.01
2018-07-13T15:09:10.090Z,26.98
2018-07-13T15:10:10.649Z,26.93
2018-07-13T15:11:12.035Z,26.96
2018-07-13T15:12:13.446Z,26.93
2018-07-13T15:13:14.864Z,26.98
2018-07-13T15:14:17.949Z,27.01
2018-07-13T15:15:20.346Z,27.01
2018-07-13T15:16:21.917Z,26.91
2018-07-13T15:17:23.397Z,26.91
2018-07-13T15:18:24.786Z,26.86
2018-07-13T15:19:28.425Z,26.90
2018-07-13T15:20:30.564Z,26.88
2018-07-13T15:21:33.114Z,26.94
2018-07-13T15:22:35.903Z,26.88
2018-07-13T15:23:37.285Z,26.90
2018-07-13T15:24:39.934Z,26.90
2018-07-13T15:25:41.344Z,26.98
2018-07-13T15:26:42.725Z,26.93
2018-07-13T15:27:44.890Z,26.96
2018-07-13T15:28:48.082Z,26.87
2018-07-13T15:29:50.820Z,26.81
2018-07-13T15:30:53.222Z,26.84
2018-07-13T15:31:55.433Z,26.86
2018-07-13T15:32:57.341Z,26.83
2018-07-13T15:33:58.750Z,26.78
2018-07-13T15:35:00.146Z,26.83
2018-07-13T15:36:01.554Z,26.79
2018-07-13T15:37:04.037Z,26.68
2018-07-13T15:38:05.436Z,26.71
2018-07-13T15:39:06.833Z,26.71
2018-07-13T15:40:08.213Z,26.73
2018-07-13T15:41:09.607Z,26.69
2018-07-13T15:42:11.016Z,26.71
2018-07-13T15:43:12.431Z,26.78
2018-07-13T15:44:13.847Z,26.78
2018-07-13T15:45:15.286Z,26.81
2018-07-13T15:46:16.690Z,26.83
2018-07-13T15:47:18.073Z,26.88
2018-07-13T15:48:19.491Z,26.86
2018-07-13T15:49:20.885Z,26.83
2018-07-13T15:50:22.295Z,26.86
2018-07-13T15:51:23.701Z,26.83
2018-07-13T15:52:25.095Z,26.88
2018-07-13T15:53:26.491Z,26.97
2018-07-13T15:54:27.889Z,26.91
2018-07-13T15:55:29.296Z,26.87
2018-07-13T15:56:31.196Z,26.90
2018-07-13T15:57:32.594Z,26.94
2018-07-13T15:58:34.094Z,26.86
2018-07-13T15:59:35.401Z,26.87
2018-07-13T16:00:36.790Z,26.90
2018-07-13T16:01:38.192Z,26.81
2018-07-13T16:02:39.587Z,26.88
2018-07-13T16:03:40.989Z,26.94
2018-07-13T16:04:42.379Z,26.90
2018-07-13T16:05:43.778Z,26.87
2018-07-13T16:06:45.176Z,26.86
2018-07-13T16:07:46.578Z,26.94
2018-07-13T16:08:47.966Z,26.90
2018-07-13T16:09:50.006Z,26.88
2018-07-13T16:10:51.448Z,26.93
2018-07-13T16:11:52.768Z,26.88
2018-07-13T16:12:54.154Z,26.84
2018-07-13T16:13:55.561Z,26.90
2018-07-13T16:14:57.637Z,26.90
2018-07-13T16:15:59.040Z,26.93
2018-07-13T16:17:00.964Z,26.87
2018-07-13T16:18:02.368Z,26.91
2018-07-13T16:19:03.776Z,26.88
2018-07-13T16:20:05.170Z,26.88
2018-07-13T16:21:06.579Z,26.86
2018-07-13T16:22:07.980Z,26.86
2018-07-13T16:23:09.379Z,26.78
2018-07-13T16:24:10.787Z,26.68
2018-07-13T16:25:12.188Z,26.68
2018-07-13T16:26:13.596Z,26.73
2018-07-13T16:27:14.991Z,26.66
2018-07-13T16:28:16.458Z,26.66
2018-07-13T16:29:17.752Z,26.66
2018-07-13T16:30:19.149Z,26.57
2018-07-13T16:31:20.556Z,26.60
2018-07-13T16:32:21.958Z,26.50
2018-07-13T16:33:23.356Z,26.49
2018-07-13T16:34:24.752Z,26.49
2018-07-13T16:35:26.152Z,26.42
2018-07-13T16:36:27.544Z,26.49
2018-07-13T16:37:28.936Z,26.49
2018-07-13T16:38:30.334Z,26.44
2018-07-13T16:39:31.727Z,26.47
2018-07-13T16:40:33.139Z,26.46
2018-07-13T16:41:34.528Z,26.51
2018-07-13T16:42:35.930Z,26.49
2018-07-13T16:43:37.334Z,26.49
2018-07-13T16:44:38.744Z,26.44
2018-07-13T16:45:40.145Z,26.44
2018-07-13T16:46:41.539Z,26.49
2018-07-13T16:47:42.924Z,26.38
2018-07-13T16:48:44.332Z,26.44
2018-07-13T16:49:45.739Z,26.38
2018-07-13T16:50:47.198Z,26.46
2018-07-13T16:51:48.577Z,26.36
2018-07-13T16:52:49.959Z,26.42
2018-07-13T16:53:51.355Z,26.38
2018-07-13T16:54:52.759Z,26.38
2018-07-13T16:55:54.156Z,26.35
2018-07-13T16:56:55.552Z,26.39
2018-07-13T16:57:56.976Z,26.34
2018-07-13T16:58:58.460Z,26.38
2018-07-13T16:59:59.864Z,26.31
2018-07-13T17:01:01.255Z,26.39
2018-07-13T17:02:02.655Z,26.38
2018-07-13T17:03:04.059Z,26.34
2018-07-13T17:04:05.439Z,26.34
2018-07-13T17:05:06.842Z,26.34
2018-07-13T17:06:08.239Z,26.31
2018-07-13T17:07:09.649Z,26.36
2018-07-13T17:08:11.031Z,26.27
2018-07-13T17:09:12.437Z,26.27
2018-07-13T17:10:13.837Z,26.21
2018-07-13T17:11:15.253Z,26.23
2018-07-13T17:12:16.645Z,26.21
2018-07-13T17:13:18.049Z,26.19
2018-07-13T17:14:19.455Z,26.21
2018-07-13T17:15:20.852Z,26.21
2018-07-13T17:16:22.250Z,26.23
2018-07-13T17:17:23.639Z,26.17
2018-07-13T17:18:25.030Z,26.20
2018-07-13T17:19:26.435Z,26.12
2018-07-13T17:20:27.912Z,26.16
2018-07-13T17:21:29.222Z,26.16
2018-07-13T17:22:30.620Z,26.16
2018-07-13T17:23:32.872Z,26.04
2018-07-13T17:24:34.267Z,25.96
2018-07-13T17:25:35.686Z,26.04
2018-07-13T17:26:37.090Z,26.03
2018-07-13T17:27:38.486Z,25.96
2018-07-13T17:28:39.899Z,25.98
2018-07-13T17:29:41.300Z,25.94
2018-07-13T17:30:42.700Z,25.94
2018-07-13T17:31:44.100Z,25.90
2018-07-13T17:32:45.488Z,25.93
2018-07-13T17:33:46.896Z,25.91
2018-07-13T17:34:48.297Z,25.82
2018-07-13T17:35:49.697Z,25.82
2018-07-13T17:36:51.091Z,25.90
2018-07-13T17:37:52.490Z,25.83
2018-07-13T17:38:53.877Z,25.83
2018-07-13T17:39:55.293Z,25.83
2018-07-13T17:40:56.695Z,25.79
2018-07-13T17:41:58.081Z,25.79
2018-07-13T17:42:59.523Z,25.82
2018-07-13T17:44:00.852Z,25.83
2018-07-13T17:45:02.260Z,25.81
2018-07-13T17:46:03.603Z,25.85
2018-07-13T17:47:05.001Z,25.69
2018-07-13T17:48:06.398Z,25.67
2018-07-13T17:49:07.817Z,25.74
2018-07-13T17:50:09.220Z,25.72
2018-07-13T17:51:10.628Z,25.67
2018-07-13T17:52:12.060Z,25.74
2018-07-13T17:53:13.474Z,25.74
2018-07-13T17:54:14.876Z,25.76
2018-07-13T17:55:16.266Z,25.63
2018-07-13T17:56:17.657Z,25.66
2018-07-13T17:57:19.054Z,25.57
2018-07-13T17:58:20.462Z,25.64
2018-07-13T17:59:21.846Z,25.54
2018-07-13T18:00:23.255Z,25.57
2018-07-13T18:01:24.650Z,25.48
2018-07-13T18:02:26.037Z,25.48
2018-07-13T18:03:27.454Z,25.45
2018-07-13T18:04:28.863Z,25.44
2018-07-13T18:05:30.246Z,25.44
2018-07-13T18:06:31.653Z,25.34
2018-07-13T18:07:33.059Z,25.39
2018-07-13T18:08:34.467Z,25.38
2018-07-13T18:09:35.867Z,25.35
2018-07-13T18:10:37.263Z,25.31
2018-07-13T18:11:38.669Z,25.34
2018-07-13T18:12:40.140Z,25.35
2018-07-13T18:13:41.429Z,25.36
2018-07-13T18:14:42.836Z,25.20
2018-07-13T18:15:44.260Z,25.19
2018-07-13T18:16:45.645Z,25.27
2018-07-13T18:17:47.055Z,25.26
2018-07-13T18:18:48.462Z,25.12
2018-07-13T18:19:49.875Z,25.16
2018-07-13T18:20:51.269Z,25.14
2018-07-13T18:21:52.625Z,25.22
2018-07-13T18:22:54.037Z,25.17
2018-07-13T18:23:55.441Z,25.16
2018-07-13T18:24:56.830Z,25.08
2018-07-13T18:25:58.256Z,25.08
2018-07-13T18:26:59.660Z,24.99
2018-07-13T18:28:01.968Z,25.04
2018-07-13T18:29:03.374Z,25.02
2018-07-13T18:30:04.769Z,24.98
2018-07-13T18:31:07.513Z,25.01
2018-07-13T18:32:08.917Z,24.92
2018-07-13T18:33:10.339Z,25.02
2018-07-13T18:34:11.741Z,24.98
2018-07-13T18:35:13.154Z,24.94
2018-07-13T18:36:14.557Z,24.92
2018-07-13T18:37:15.975Z,24.90
2018-07-13T18:38:17.392Z,24.90
2018-07-13T18:39:18.802Z,24.92
2018-07-13T18:40:20.234Z,24.89
2018-07-13T18:41:21.652Z,24.87
2018-07-13T18:42:23.780Z,24.87
2018-07-13T18:43:25.227Z,24.90
2018-07-13T18:44:26.751Z,24.82
2018-07-13T18:45:28.012Z,24.74
2018-07-13T18:46:29.417Z,24.79
2018-07-13T18:47:30.872Z,24.79
2018-07-13T18:48:32.283Z,24.75
2018-07-13T18:49:33.683Z,24.63
2018-07-13T18:50:36.114Z,24.59
2018-07-13T18:51:37.529Z,24.61
2018-07-13T18:52:39.470Z,24.49
2018-07-13T18:53:40.866Z,24.59
2018-07-13T18:54:42.254Z,24.48
2018-07-13T18:55:43.653Z,24.44
2018-07-13T18:56:45.089Z,24.44
2018-07-13T18:57:47.432Z,24.34
2018-07-13T18:58:48.882Z,24.39
2018-07-13T18:59:50.293Z,24.29
2018-07-13T19:00:52.316Z,24.29
2018-07-13T19:01:55.253Z,24.21
2018-07-13T19:02:57.345Z,24.18
2018-07-13T19:03:59.238Z,24.14
2018-07-13T19:05:00.681Z,24.05
2018-07-13T19:06:02.139Z,24.11
2018-07-13T19:07:03.630Z,24.08
2018-07-13T19:08:05.037Z,24.09
2018-07-13T19:09:07.455Z,23.96
2018-07-13T19:10:08.875Z,23.96
2018-07-13T19:11:10.278Z,23.96
2018-07-13T19:12:11.797Z,23.93
2018-07-13T19:13:14.723Z,23.94
2018-07-13T19:14:16.315Z,23.92
2018-07-13T19:15:17.786Z,23.90
2018-07-13T19:16:20.199Z,23.75
2018-07-13T19:17:23.435Z,23.84
2018-07-13T19:18:25.571Z,23.81
2018-07-13T19:19:26.993Z,23.75
2018-07-13T19:20:30.225Z,23.75
2018-07-13T19:21:31.710Z,23.71
2018-07-13T19:22:33.319Z,23.63
2018-07-13T19:23:34.809Z,23.57
2018-07-13T19:24:36.492Z,23.56
2018-07-13T19:25:39.388Z,23.57
2018-07-13T19:26:40.932Z,23.50
2018-07-13T19:27:43.389Z,23.54
2018-07-13T19:28:45.480Z,23.49
2018-07-13T19:29:47.864Z,23.42
2018-07-13T19:30:49.446Z,23.32
2018-07-13T19:31:52.389Z,23.34
2018-07-13T19:32:54.694Z,23.23
2018-07-13T19:33:56.647Z,23.26
2018-07-13T19:34:58.166Z,23.23
2018-07-13T19:36:00.363Z,23.15
2018-07-13T19:37:02.501Z,23.12
2018-07-13T19:38:05.735Z,23.09
2018-07-13T19:39:07.573Z,23.09
2018-07-13T19:40:11.244Z,23.07
2018-07-13T19:41:14.198Z,23.04
2018-07-13T19:42:15.754Z,23.01
2018-07-13T19:43:20.319Z,22.99
2018-07-13T19:44:22.425Z,22.99
2018-07-13T19:45:24.526Z,22.96
2018-07-13T19:46:26.705Z,22.96
2018-07-13T19:47:28.277Z,22.96
2018-07-13T19:48:31.567Z,22.88
2018-07-13T19:49:35.244Z,22.79
2018-07-13T19:50:37.699Z,22.84
2018-07-13T19:51:39.868Z,22.84
2018-07-13T19:52:42.852Z,22.82
2018-07-13T19:53:44.294Z,22.74
2018-07-13T19:54:46.506Z,22.70
2018-07-13T19:55:50.090Z,22.78
2018-07-13T19:56:53.898Z,22.69
2018-07-13T19:57:55.989Z,22.70
2018-07-13T19:58:57.408Z,22.74
2018-07-13T19:59:59.757Z,22.61
2018-07-13T20:01:01.747Z,22.57
2018-07-13T20:02:04.104Z,22.63
2018-07-13T20:03:05.667Z,22.60
2018-07-13T20:04:08.979Z,22.52
2018-07-13T20:05:10.437Z,22.48
2018-07-13T20:06:13.452Z,22.51
2018-07-13T20:07:15.575Z,22.44
2018-07-13T20:08:17.048Z,22.46
2018-07-13T20:09:18.590Z,22.42
2018-07-13T20:10:21.260Z,22.36
2018-07-13T20:11:23.755Z,22.35
2018-07-13T20:12:26.989Z,22.39
2018-07-13T20:13:31.755Z,22.27
2018-07-13T20:14:33.680Z,22.30
2018-07-13T20:15:37.589Z,22.23
2018-07-13T20:16:39.657Z,22.12
2018-07-13T20:17:41.657Z,22.11
2018-07-13T20:18:45.421Z,22.11
2018-07-13T20:19:47.439Z,22.17
2018-07-13T20:20:51.510Z,22.05
2018-07-13T20:21:54.839Z,22.02
2018-07-13T20:22:58.355Z,21.91
2018-07-13T20:24:00.832Z,21.98
2018-07-13T20:25:05.913Z,21.90
2018-07-13T20:26:08.294Z,21.89
2018-07-13T20:27:10.793Z,21.83
2018-07-13T20:28:15.258Z,21.83
2018-07-13T20:29:18.930Z,21.83
2018-07-13T20:30:20.419Z,21.79
2018-07-13T20:31:22.936Z,21.83
2018-07-13T20:32:27.379Z,21.75
2018-07-13T20:33:32.855Z,21.74
2018-07-13T20:34:36.260Z,21.68
2018-07-13T20:35:37.938Z,21.61
2018-07-13T20:36:40.172Z,21.73
2018-07-13T20:37:42.415Z,21.71
2018-07-13T20:38:43.898Z,21.68
2018-07-13T20:39:47.880Z,21.71
2018-07-13T20:40:50.321Z,21.70
2018-07-13T20:41:52.458Z,21.70
2018-07-13T20:42:55.439Z,21.68
2018-07-13T20:43:58.432Z,21.68
2018-07-13T20:45:01.779Z,21.64
2018-07-13T20:46:03.272Z,21.63
2018-07-13T20:47:06.765Z,21.64
2018-07-13T20:48:10.760Z,21.56
2018-07-13T20:49:12.997Z,21.59
2018-07-13T20:50:15.296Z,21.64
2018-07-13T20:51:18.057Z,21.58
2018-07-13T20:52:20.956Z,21.49
2018-07-13T20:53:23.114Z,21.48
2018-07-13T20:54:25.215Z,21.51
2018-07-13T20:55:26.764Z,21.48
2018-07-13T20:56:29.835Z,21.45
2018-07-13T20:57:32.032Z,21.40
2018-07-13T20:58:33.767Z,21.42
2018-07-13T20:59:36.158Z,21.45
2018-07-13T21:00:38.366Z,21.38